^^
Your Local Weather - Clay, NY Station Historical Data
Daily Summary for January 15, 2018 Units:  Both    English   Metric
« Previous Day
Next Day »
Daily Weekly Monthly Yearly Custom
  High: Low: Average:
Temperature: 16.9 °F /  -8.4 °C -6.7 °F /  -21.5 °C 7.7 °F /  -13.5 °C
Dew Point: 14.4 °F /  -9.8 °C -10.5 °F /  -23.6 °C 4.7 °F /  -15.2 °C
Humidity: 90% 83% 87%
Wind Speed: 5.0mph /  8km/h - 2.1mph /  3.4km/h
Wind Gust: 11.0mph /  17.7km/h - -
Wind- - East
Pressure: 30.75 in /  1041.2 hPa 30.40 in /  1029.3 hPa -
Precipitation: 0.00 in /  0 mm    
Historical Graphs
 
 
Tabular Data for January 15, 2018
Time Temperature Dew Point Pressure Wind Wind Speed Wind Gust Humidity Rainfall Rate (Hourly) solar
00:06 -6.6 °F /  -21.4 °C -10.4 °F /  -23.6 °C 30.73in /  1040.5hPa Calm     83% 0.00in /  0mm 0 W/m2
00:12 -6.7 °F /  -21.5 °C -10.5 °F /  -23.6 °C 30.73in /  1040.5hPa Calm     83% 0.00in /  0mm 0 W/m2
00:20 -6.5 °F /  -21.4 °C -10.3 °F /  -23.5 °C 30.72in /  1040.2hPa Calm     83% 0.00in /  0mm 0 W/m2
00:26 -6.3 °F /  -21.3 °C -10.1 °F /  -23.4 °C 30.72in /  1040.2hPa Calm     83% 0.00in /  0mm 0 W/m2
00:32 -6.3 °F /  -21.3 °C -10.1 °F /  -23.4 °C 30.72in /  1040.2hPa Calm     83% 0.00in /  0mm 0 W/m2
00:38 -6.3 °F /  -21.3 °C -10.1 °F /  -23.4 °C 30.72in /  1040.2hPa Calm     83% 0.00in /  0mm 0 W/m2
00:48 -6.3 °F /  -21.3 °C -10.1 °F /  -23.4 °C 30.73in /  1040.5hPa Calm     83% 0.00in /  0mm 0 W/m2
00:54 -6.4 °F /  -21.3 °C -10.2 °F /  -23.4 °C 30.73in /  1040.5hPa Calm     83% 0.00in /  0mm 0 W/m2
01:00 -6.4 °F /  -21.3 °C -10.2 °F /  -23.4 °C 30.72in /  1040.2hPa Calm     83% 0.00in /  0mm 0 W/m2
01:06 -6.1 °F /  -21.2 °C -9.9 °F /  -23.3 °C 30.72in /  1040.2hPa Calm   1.0mph /  1.6km/h 83% 0.00in /  0mm 0 W/m2
01:12 -5.8 °F /  -21 °C -9.4 °F /  -23 °C 30.72in /  1040.2hPa Calm     84% 0.00in /  0mm 0 W/m2
01:18 -5.6 °F /  -20.9 °C -9.2 °F /  -22.9 °C 30.72in /  1040.2hPa Calm     84% 0.00in /  0mm 0 W/m2
01:24 -5.6 °F /  -20.9 °C -9.4 °F /  -23 °C 30.72in /  1040.2hPa Calm     83% 0.00in /  0mm 0 W/m2
01:30 -5.7 °F /  -20.9 °C -9.5 °F /  -23.1 °C 30.72in /  1040.2hPa Calm     83% 0.00in /  0mm 0 W/m2
01:36 -5.8 °F /  -21 °C -9.4 °F /  -23 °C 30.72in /  1040.2hPa Calm     84% 0.00in /  0mm 0 W/m2
01:42 -5.3 °F /  -20.7 °C -8.9 °F /  -22.7 °C 30.73in /  1040.5hPa Calm     84% 0.00in /  0mm 0 W/m2
01:48 -4.8 °F /  -20.4 °C -8.4 °F /  -22.4 °C 30.73in /  1040.5hPa Calm     84% 0.00in /  0mm 0 W/m2
01:54 -4.5 °F /  -20.3 °C -8.1 °F /  -22.3 °C 30.74in /  1040.9hPa Calm     84% 0.00in /  0mm 0 W/m2
02:00 -4.1 °F /  -20.1 °C -7.7 °F /  -22.1 °C 30.75in /  1041.2hPa Calm     84% 0.00in /  0mm 0 W/m2
02:06 -3.8 °F /  -19.9 °C -7.4 °F /  -21.9 °C 30.75in /  1041.2hPa SSE 1.0mph /  1.6km/h 2.0mph /  3.2km/h 84% 0.00in /  0mm 0 W/m2
02:12 -3.4 °F /  -19.7 °C -7.0 °F /  -21.7 °C 30.74in /  1040.9hPa SSE 1.0mph /  1.6km/h 1.0mph /  1.6km/h 84% 0.00in /  0mm 0 W/m2
02:18 -3.1 °F /  -19.5 °C -6.7 °F /  -21.5 °C 30.73in /  1040.5hPa Calm   1.0mph /  1.6km/h 84% 0.00in /  0mm 0 W/m2
02:30 -3.1 °F /  -19.5 °C -6.7 °F /  -21.5 °C 30.72in /  1040.2hPa Calm     84% 0.00in /  0mm 0 W/m2
02:36 -3.3 °F /  -19.6 °C -6.9 °F /  -21.6 °C 30.72in /  1040.2hPa Calm     84% 0.00in /  0mm 0 W/m2
02:42 -3.5 °F /  -19.7 °C -7.1 °F /  -21.7 °C 30.72in /  1040.2hPa Calm     84% 0.00in /  0mm 0 W/m2
02:48 -3.6 °F /  -19.8 °C -7.2 °F /  -21.8 °C 30.72in /  1040.2hPa Calm   2.0mph /  3.2km/h 84% 0.00in /  0mm 0 W/m2
02:54 -3.4 °F /  -19.7 °C -7.0 °F /  -21.7 °C 30.72in /  1040.2hPa Calm   1.0mph /  1.6km/h 84% 0.00in /  0mm 0 W/m2
03:00 -3.1 °F /  -19.5 °C -6.7 °F /  -21.5 °C 30.71in /  1039.8hPa Calm   1.0mph /  1.6km/h 84% 0.00in /  0mm 0 W/m2
03:06 -2.9 °F /  -19.4 °C -6.5 °F /  -21.4 °C 30.71in /  1039.8hPa NE 1.0mph /  1.6km/h 2.0mph /  3.2km/h 84% 0.00in /  0mm 0 W/m2
03:12 -2.8 °F /  -19.3 °C -6.4 °F /  -21.3 °C 30.71in /  1039.8hPa ENE 1.0mph /  1.6km/h 1.0mph /  1.6km/h 84% 0.00in /  0mm 0 W/m2
03:18 -2.5 °F /  -19.2 °C -5.9 °F /  -21.1 °C 30.71in /  1039.8hPa ENE 1.0mph /  1.6km/h 1.0mph /  1.6km/h 85% 0.00in /  0mm 0 W/m2
03:26 -2.4 °F /  -19.1 °C -5.8 °F /  -21 °C 30.70in /  1039.5hPa ENE 1.0mph /  1.6km/h 1.0mph /  1.6km/h 85% 0.00in /  0mm 0 W/m2
03:32 -2.3 °F /  -19.1 °C -5.7 °F /  -20.9 °C 30.70in /  1039.5hPa ENE 1.0mph /  1.6km/h 1.0mph /  1.6km/h 85% 0.00in /  0mm 0 W/m2
03:38 -2.2 °F /  -19 °C -5.6 °F /  -20.9 °C 30.70in /  1039.5hPa ENE 1.0mph /  1.6km/h 4.0mph /  6.4km/h 85% 0.00in /  0mm 0 W/m2
03:44 -2.2 °F /  -19 °C -5.6 °F /  -20.9 °C 30.70in /  1039.5hPa East 1.0mph /  1.6km/h 2.0mph /  3.2km/h 85% 0.00in /  0mm 0 W/m2
03:50 -2.0 °F /  -18.9 °C -5.4 °F /  -20.8 °C 30.70in /  1039.5hPa East 1.0mph /  1.6km/h 1.0mph /  1.6km/h 85% 0.00in /  0mm 0 W/m2
03:56 -2.0 °F /  -18.9 °C -5.4 °F /  -20.8 °C 30.69in /  1039.2hPa ENE 1.0mph /  1.6km/h 2.0mph /  3.2km/h 85% 0.00in /  0mm 0 W/m2
04:02 -2.0 °F /  -18.9 °C -5.6 °F /  -20.9 °C 30.68in /  1038.8hPa ENE 1.0mph /  1.6km/h 1.0mph /  1.6km/h 84% 0.00in /  0mm 0 W/m2
04:08 -1.9 °F /  -18.8 °C -5.3 °F /  -20.7 °C 30.68in /  1038.8hPa ESE 1.0mph /  1.6km/h 1.0mph /  1.6km/h 85% 0.00in /  0mm 0 W/m2
04:14 -1.7 °F /  -18.7 °C -5.1 °F /  -20.6 °C 30.68in /  1038.8hPa East 1.0mph /  1.6km/h 2.0mph /  3.2km/h 85% 0.00in /  0mm 0 W/m2
04:22 -1.4 °F /  -18.6 °C -4.8 °F /  -20.4 °C 30.68in /  1038.8hPa East 2.0mph /  3.2km/h 2.0mph /  3.2km/h 85% 0.00in /  0mm 0 W/m2
04:28 -1.2 °F /  -18.4 °C -4.6 °F /  -20.3 °C 30.68in /  1038.8hPa ESE 2.0mph /  3.2km/h 5.0mph /  8km/h 85% 0.00in /  0mm 0 W/m2
04:36 -1.0 °F /  -18.3 °C -4.4 °F /  -20.2 °C 30.68in /  1038.8hPa ENE 1.0mph /  1.6km/h 2.0mph /  3.2km/h 85% 0.00in /  0mm 0 W/m2
04:42 -0.9 °F /  -18.3 °C -4.3 °F /  -20.2 °C 30.68in /  1038.8hPa ENE 2.0mph /  3.2km/h 5.0mph /  8km/h 85% 0.00in /  0mm 0 W/m2
04:48 -0.8 °F /  -18.2 °C -4.2 °F /  -20.1 °C 30.68in /  1038.8hPa East 2.0mph /  3.2km/h 5.0mph /  8km/h 85% 0.00in /  0mm 0 W/m2
04:54 -0.8 °F /  -18.2 °C -4.2 °F /  -20.1 °C 30.68in /  1038.8hPa ENE 2.0mph /  3.2km/h 3.0mph /  4.8km/h 85% 0.00in /  0mm 0 W/m2
05:04 -0.8 °F /  -18.2 °C -4.2 °F /  -20.1 °C 30.68in /  1038.8hPa East 1.0mph /  1.6km/h 2.0mph /  3.2km/h 85% 0.00in /  0mm 0 W/m2
05:10 -0.9 °F /  -18.3 °C -4.3 °F /  -20.2 °C 30.68in /  1038.8hPa Calm     85% 0.00in /  0mm 0 W/m2
05:16 -1.1 °F /  -18.4 °C -4.5 °F /  -20.3 °C 30.68in /  1038.8hPa Calm   1.0mph /  1.6km/h 85% 0.00in /  0mm 0 W/m2
05:22 -1.2 °F /  -18.4 °C -4.6 °F /  -20.3 °C 30.68in /  1038.8hPa Calm     85% 0.00in /  0mm 0 W/m2
05:28 -1.3 °F /  -18.5 °C -4.7 °F /  -20.4 °C 30.69in /  1039.2hPa Calm     85% 0.00in /  0mm 0 W/m2
05:34 -1.6 °F /  -18.7 °C -5.0 °F /  -20.6 °C 30.69in /  1039.2hPa Calm     85% 0.00in /  0mm 0 W/m2
05:40 -2.0 °F /  -18.9 °C -5.6 °F /  -20.9 °C 30.69in /  1039.2hPa Calm     84% 0.00in /  0mm 0 W/m2
05:46 -2.5 °F /  -19.2 °C -6.1 °F /  -21.2 °C 30.68in /  1038.8hPa Calm   1.0mph /  1.6km/h 84% 0.00in /  0mm 0 W/m2
05:52 -3.0 °F /  -19.4 °C -6.6 °F /  -21.4 °C 30.68in /  1038.8hPa Calm     84% 0.00in /  0mm 0 W/m2
05:58 -3.2 °F /  -19.6 °C -6.8 °F /  -21.6 °C 30.69in /  1039.2hPa Calm     84% 0.00in /  0mm 0 W/m2
06:04 -3.3 °F /  -19.6 °C -6.9 °F /  -21.6 °C 30.69in /  1039.2hPa Calm     84% 0.00in /  0mm 0 W/m2
06:10 -3.4 °F /  -19.7 °C -7.0 °F /  -21.7 °C 30.70in /  1039.5hPa Calm     84% 0.00in /  0mm 0 W/m2
06:16 -3.7 °F /  -19.8 °C -7.3 °F /  -21.8 °C 30.69in /  1039.2hPa Calm     84% 0.00in /  0mm 0 W/m2
06:22 -3.9 °F /  -19.9 °C -7.5 °F /  -21.9 °C 30.69in /  1039.2hPa Calm     84% 0.00in /  0mm 0 W/m2
06:28 -3.9 °F /  -19.9 °C -7.5 °F /  -21.9 °C 30.69in /  1039.2hPa Calm     84% 0.00in /  0mm 0 W/m2
06:34 -3.7 °F /  -19.8 °C -7.3 °F /  -21.8 °C 30.69in /  1039.2hPa Calm   1.0mph /  1.6km/h 84% 0.00in /  0mm 0 W/m2
06:50 -2.5 °F /  -19.2 °C -5.9 °F /  -21.1 °C 30.69in /  1039.2hPa ENE 1.0mph /  1.6km/h 1.0mph /  1.6km/h 85% 0.00in /  0mm 0 W/m2
06:56 -2.1 °F /  -18.9 °C -5.5 °F /  -20.8 °C 30.70in /  1039.5hPa SE 1.0mph /  1.6km/h 1.0mph /  1.6km/h 85% 0.00in /  0mm 0 W/m2
07:02 -1.9 °F /  -18.8 °C -5.3 °F /  -20.7 °C 30.69in /  1039.2hPa SSE 1.0mph /  1.6km/h 1.0mph /  1.6km/h 85% 0.00in /  0mm 0 W/m2
07:14 -1.9 °F /  -18.8 °C -5.3 °F /  -20.7 °C 30.68in /  1038.8hPa Calm   1.0mph /  1.6km/h 85% 0.00in /  0mm 0 W/m2
07:20 -1.8 °F /  -18.8 °C -5.2 °F /  -20.7 °C 30.68in /  1038.8hPa ESE 1.0mph /  1.6km/h 1.0mph /  1.6km/h 85% 0.00in /  0mm 0 W/m2
07:28 -1.6 °F /  -18.7 °C -5.0 °F /  -20.6 °C 30.68in /  1038.8hPa ESE 1.0mph /  1.6km/h 1.0mph /  1.6km/h 85% 0.00in /  0mm 0 W/m2
07:34 -1.5 °F /  -18.6 °C -4.9 °F /  -20.5 °C 30.67in /  1038.5hPa East 2.0mph /  3.2km/h 5.0mph /  8km/h 85% 0.00in /  0mm 0 W/m2
07:40 -1.1 °F /  -18.4 °C -4.5 °F /  -20.3 °C 30.68in /  1038.8hPa ESE 2.0mph /  3.2km/h 2.0mph /  3.2km/h 85% 0.00in /  0mm 7 W/m2
07:46 -0.7 °F /  -18.2 °C -4.1 °F /  -20.1 °C 30.68in /  1038.8hPa East 2.0mph /  3.2km/h 4.0mph /  6.4km/h 85% 0.00in /  0mm 9 W/m2
07:52 -0.5 °F /  -18.1 °C -3.9 °F /  -19.9 °C 30.68in /  1038.8hPa ESE 2.0mph /  3.2km/h 2.0mph /  3.2km/h 85% 0.00in /  0mm 12 W/m2
08:02 -0.3 °F /  -17.9 °C -3.7 °F /  -19.8 °C 30.67in /  1038.5hPa ESE 2.0mph /  3.2km/h 2.0mph /  3.2km/h 85% 0.00in /  0mm 18 W/m2
08:10 -0.2 °F /  -17.9 °C -3.6 °F /  -19.8 °C 30.67in /  1038.5hPa East 2.0mph /  3.2km/h 2.0mph /  3.2km/h 85% 0.00in /  0mm 21 W/m2
08:16 -0.1 °F /  -17.8 °C -3.5 °F /  -19.7 °C 30.68in /  1038.8hPa East 2.0mph /  3.2km/h 2.0mph /  3.2km/h 85% 0.00in /  0mm 25 W/m2
08:22 -0.1 °F /  -17.8 °C -3.5 °F /  -19.7 °C 30.68in /  1038.8hPa ESE 1.0mph /  1.6km/h 3.0mph /  4.8km/h 85% 0.00in /  0mm 28 W/m2
08:28 0.1 °F /  -17.7 °C -3.3 °F /  -19.6 °C 30.68in /  1038.8hPa ENE 1.0mph /  1.6km/h 3.0mph /  4.8km/h 85% 0.00in /  0mm 44 W/m2
08:34 0.1 °F /  -17.7 °C -3.3 °F /  -19.6 °C 30.68in /  1038.8hPa East 1.0mph /  1.6km/h 2.0mph /  3.2km/h 85% 0.00in /  0mm 162 W/m2
08:40 0.4 °F /  -17.6 °C -3.0 °F /  -19.4 °C 30.67in /  1038.5hPa ENE 1.0mph /  1.6km/h 3.0mph /  4.8km/h 85% 0.00in /  0mm 195 W/m2
08:46 1.0 °F /  -17.2 °C -2.2 °F /  -19 °C 30.67in /  1038.5hPa East 2.0mph /  3.2km/h 3.0mph /  4.8km/h 86% 0.00in /  0mm 211 W/m2
08:52 1.7 °F /  -16.8 °C -1.5 °F /  -18.6 °C 30.68in /  1038.8hPa East 2.0mph /  3.2km/h 2.0mph /  3.2km/h 86% 0.00in /  0mm 234 W/m2
08:58 2.4 °F /  -16.4 °C -0.8 °F /  -18.2 °C 30.68in /  1038.8hPa East 3.0mph /  4.8km/h 3.0mph /  4.8km/h 86% 0.00in /  0mm 246 W/m2
09:04 2.8 °F /  -16.2 °C -0.4 °F /  -18 °C 30.68in /  1038.8hPa East 2.0mph /  3.2km/h 3.0mph /  4.8km/h 86% 0.00in /  0mm 243 W/m2
09:14 3.5 °F /  -15.8 °C 0.3 °F /  -17.6 °C 30.68in /  1038.8hPa East 3.0mph /  4.8km/h 4.0mph /  6.4km/h 86% 0.00in /  0mm 285 W/m2
09:20 4.0 °F /  -15.6 °C 0.7 °F /  -17.4 °C 30.68in /  1038.8hPa East 3.0mph /  4.8km/h 6.0mph /  9.7km/h 86% 0.00in /  0mm 299 W/m2
09:26 4.4 °F /  -15.3 °C 1.4 °F /  -17 °C 30.67in /  1038.5hPa East 4.0mph /  6.4km/h 6.0mph /  9.7km/h 87% 0.00in /  0mm 311 W/m2
09:32 4.8 °F /  -15.1 °C 1.8 °F /  -16.8 °C 30.67in /  1038.5hPa East 3.0mph /  4.8km/h 10.0mph /  16.1km/h 87% 0.00in /  0mm 323 W/m2
09:38 5.2 °F /  -14.9 °C 2.2 °F /  -16.6 °C 30.67in /  1038.5hPa ENE 4.0mph /  6.4km/h 10.0mph /  16.1km/h 87% 0.00in /  0mm 334 W/m2
09:44 5.3 °F /  -14.8 °C 2.0 °F /  -16.7 °C 30.67in /  1038.5hPa ENE 4.0mph /  6.4km/h 6.0mph /  9.7km/h 86% 0.00in /  0mm 346 W/m2
09:50 5.6 °F /  -14.7 °C 2.3 °F /  -16.5 °C 30.67in /  1038.5hPa SE 4.0mph /  6.4km/h 4.0mph /  6.4km/h 86% 0.00in /  0mm 359 W/m2
09:56 5.9 °F /  -14.5 °C 2.9 °F /  -16.2 °C 30.67in /  1038.5hPa ENE 5.0mph /  8km/h 8.0mph /  12.9km/h 87% 0.00in /  0mm 369 W/m2
10:02 6.3 °F /  -14.3 °C 3.3 °F /  -15.9 °C 30.66in /  1038.1hPa East 4.0mph /  6.4km/h 6.0mph /  9.7km/h 87% 0.00in /  0mm 381 W/m2
10:08 6.5 °F /  -14.2 °C 3.5 °F /  -15.8 °C 30.66in /  1038.1hPa NNE 4.0mph /  6.4km/h 6.0mph /  9.7km/h 87% 0.00in /  0mm 394 W/m2
10:14 6.6 °F /  -14.1 °C 3.6 °F /  -15.8 °C 30.66in /  1038.1hPa East 4.0mph /  6.4km/h 7.0mph /  11.3km/h 87% 0.00in /  0mm 404 W/m2
10:26 7.1 °F /  -13.8 °C 4.0 °F /  -15.6 °C 30.66in /  1038.1hPa North 4.0mph /  6.4km/h 4.0mph /  6.4km/h 87% 0.00in /  0mm 429 W/m2
10:32 7.6 °F /  -13.6 °C 4.5 °F /  -15.3 °C 30.65in /  1037.8hPa East 4.0mph /  6.4km/h 8.0mph /  12.9km/h 87% 0.00in /  0mm 432 W/m2
10:38 7.9 °F /  -13.4 °C 4.8 °F /  -15.1 °C 30.65in /  1037.8hPa NE 5.0mph /  8km/h 9.0mph /  14.5km/h 87% 0.00in /  0mm 448 W/m2
10:44 8.2 °F /  -13.2 °C 5.1 °F /  -14.9 °C 30.65in /  1037.8hPa East 5.0mph /  8km/h 7.0mph /  11.3km/h 87% 0.00in /  0mm 450 W/m2
10:50 8.5 °F /  -13.1 °C 5.4 °F /  -14.8 °C 30.65in /  1037.8hPa ESE 5.0mph /  8km/h 5.0mph /  8km/h 87% 0.00in /  0mm 454 W/m2
10:56 8.7 °F /  -12.9 °C 5.6 °F /  -14.7 °C 30.65in /  1037.8hPa East 5.0mph /  8km/h 9.0mph /  14.5km/h 87% 0.00in /  0mm 464 W/m2
11:02 9.0 °F /  -12.8 °C 5.9 °F /  -14.5 °C 30.64in /  1037.5hPa ENE 4.0mph /  6.4km/h 7.0mph /  11.3km/h 87% 0.00in /  0mm 462 W/m2
11:08 9.3 °F /  -12.6 °C 6.2 °F /  -14.3 °C 30.64in /  1037.5hPa NNE 5.0mph /  8km/h 7.0mph /  11.3km/h 87% 0.00in /  0mm 464 W/m2
11:14 9.8 °F /  -12.3 °C 6.7 °F /  -14.1 °C 30.63in /  1037.1hPa East 4.0mph /  6.4km/h 6.0mph /  9.7km/h 87% 0.00in /  0mm 462 W/m2
11:20 10.5 °F /  -11.9 °C 7.6 °F /  -13.6 °C 30.63in /  1037.1hPa ENE 3.0mph /  4.8km/h 5.0mph /  8km/h 88% 0.00in /  0mm 466 W/m2
11:28 10.9 °F /  -11.7 °C 8.0 °F /  -13.3 °C 30.62in /  1036.8hPa ENE 5.0mph /  8km/h 9.0mph /  14.5km/h 88% 0.00in /  0mm 476 W/m2
11:36 11.2 °F /  -11.6 °C 8.3 °F /  -13.2 °C 30.61in /  1036.5hPa NE 4.0mph /  6.4km/h 6.0mph /  9.7km/h 88% 0.00in /  0mm 408 W/m2
11:42 11.8 °F /  -11.2 °C 8.9 °F /  -12.8 °C 30.61in /  1036.5hPa ENE 3.0mph /  4.8km/h 3.0mph /  4.8km/h 88% 0.00in /  0mm 396 W/m2
11:48 12.3 °F /  -10.9 °C 9.4 °F /  -12.6 °C 30.61in /  1036.5hPa NE 3.0mph /  4.8km/h 7.0mph /  11.3km/h 88% 0.00in /  0mm 526 W/m2
11:54 12.5 °F /  -10.8 °C 9.6 °F /  -12.4 °C 30.61in /  1036.5hPa NE 3.0mph /  4.8km/h 10.0mph /  16.1km/h 88% 0.00in /  0mm 485 W/m2
12:08 12.3 °F /  -10.9 °C 9.2 °F /  -12.7 °C 30.60in /  1036.1hPa NE 4.0mph /  6.4km/h 5.0mph /  8km/h 87% 0.00in /  0mm 359 W/m2
12:14 12.3 °F /  -10.9 °C 9.2 °F /  -12.7 °C 30.60in /  1036.1hPa ENE 4.0mph /  6.4km/h 8.0mph /  12.9km/h 87% 0.00in /  0mm 392 W/m2
12:20 12.5 °F /  -10.8 °C 9.6 °F /  -12.4 °C 30.59in /  1035.8hPa ENE 4.0mph /  6.4km/h 5.0mph /  8km/h 88% 0.00in /  0mm 369 W/m2
12:26 12.8 °F /  -10.7 °C 9.9 °F /  -12.3 °C 30.58in /  1035.4hPa NNE 4.0mph /  6.4km/h 5.0mph /  8km/h 88% 0.00in /  0mm 360 W/m2
12:38 13.1 °F /  -10.5 °C 10.2 °F /  -12.1 °C 30.57in /  1035.1hPa ENE 5.0mph /  8km/h 8.0mph /  12.9km/h 88% 0.00in /  0mm 292 W/m2
12:50 13.3 °F /  -10.4 °C 10.4 °F /  -12 °C 30.57in /  1035.1hPa ENE 3.0mph /  4.8km/h 3.0mph /  4.8km/h 88% 0.00in /  0mm 267 W/m2
12:56 13.5 °F /  -10.3 °C 10.6 °F /  -11.9 °C 30.57in /  1035.1hPa ENE 3.0mph /  4.8km/h 4.0mph /  6.4km/h 88% 0.00in /  0mm 276 W/m2
13:02 13.2 °F /  -10.4 °C 10.3 °F /  -12.1 °C 30.56in /  1034.8hPa East 4.0mph /  6.4km/h 5.0mph /  8km/h 88% 0.00in /  0mm 225 W/m2
13:08 13.2 °F /  -10.4 °C 10.3 °F /  -12.1 °C 30.56in /  1034.8hPa NE 4.0mph /  6.4km/h 7.0mph /  11.3km/h 88% 0.00in /  0mm 218 W/m2
13:14 13.1 °F /  -10.5 °C 10.0 °F /  -12.2 °C 30.56in /  1034.8hPa NE 4.0mph /  6.4km/h 8.0mph /  12.9km/h 87% 0.00in /  0mm 251 W/m2
13:26 13.3 °F /  -10.4 °C 10.4 °F /  -12 °C 30.55in /  1034.4hPa ENE 4.0mph /  6.4km/h 5.0mph /  8km/h 88% 0.00in /  0mm 190 W/m2
13:32 13.3 °F /  -10.4 °C 10.4 °F /  -12 °C 30.54in /  1034.1hPa ESE 4.0mph /  6.4km/h 8.0mph /  12.9km/h 88% 0.00in /  0mm 197 W/m2
13:38 13.3 °F /  -10.4 °C 10.4 °F /  -12 °C 30.54in /  1034.1hPa East 4.0mph /  6.4km/h 8.0mph /  12.9km/h 88% 0.00in /  0mm 221 W/m2
13:50 13.6 °F /  -10.2 °C 10.7 °F /  -11.8 °C 30.53in /  1033.7hPa East 5.0mph /  8km/h 5.0mph /  8km/h 88% 0.00in /  0mm 195 W/m2
13:56 13.8 °F /  -10.1 °C 10.6 °F /  -11.9 °C 30.52in /  1033.4hPa ENE 5.0mph /  8km/h 6.0mph /  9.7km/h 87% 0.00in /  0mm 209 W/m2
14:08 14.1 °F /  -9.9 °C 10.9 °F /  -11.7 °C 30.52in /  1033.4hPa ENE 5.0mph /  8km/h 5.0mph /  8km/h 87% 0.00in /  0mm 185 W/m2
14:20 14.4 °F /  -9.8 °C 11.5 °F /  -11.4 °C 30.51in /  1033.1hPa ENE 4.0mph /  6.4km/h 4.0mph /  6.4km/h 88% 0.00in /  0mm 160 W/m2
14:26 14.5 °F /  -9.7 °C 11.6 °F /  -11.3 °C 30.52in /  1033.4hPa East 5.0mph /  8km/h 9.0mph /  14.5km/h 88% 0.00in /  0mm 148 W/m2
14:32 14.5 °F /  -9.7 °C 11.6 °F /  -11.3 °C 30.52in /  1033.4hPa East 5.0mph /  8km/h 6.0mph /  9.7km/h 88% 0.00in /  0mm 160 W/m2
14:38 14.7 °F /  -9.6 °C 11.8 °F /  -11.2 °C 30.51in /  1033.1hPa East 4.0mph /  6.4km/h 9.0mph /  14.5km/h 88% 0.00in /  0mm 148 W/m2
14:44 14.8 °F /  -9.6 °C 11.9 °F /  -11.2 °C 30.51in /  1033.1hPa ESE 4.0mph /  6.4km/h 8.0mph /  12.9km/h 88% 0.00in /  0mm 146 W/m2
14:50 15.0 °F /  -9.4 °C 12.1 °F /  -11.1 °C 30.51in /  1033.1hPa SE 3.0mph /  4.8km/h 3.0mph /  4.8km/h 88% 0.00in /  0mm 142 W/m2
14:56 15.0 °F /  -9.4 °C 12.1 °F /  -11.1 °C 30.51in /  1033.1hPa ESE 4.0mph /  6.4km/h 4.0mph /  6.4km/h 88% 0.00in /  0mm 134 W/m2
15:06 15.2 °F /  -9.3 °C 12.3 °F /  -10.9 °C 30.51in /  1033.1hPa ESE 5.0mph /  8km/h 11.0mph /  17.7km/h 88% 0.00in /  0mm 171 W/m2
15:12 15.4 °F /  -9.2 °C 12.5 °F /  -10.8 °C 30.51in /  1033.1hPa SE 4.0mph /  6.4km/h 5.0mph /  8km/h 88% 0.00in /  0mm 135 W/m2
15:18 15.5 °F /  -9.2 °C 12.6 °F /  -10.8 °C 30.51in /  1033.1hPa SE 3.0mph /  4.8km/h 5.0mph /  8km/h 88% 0.00in /  0mm 127 W/m2
15:24 15.6 °F /  -9.1 °C 12.7 °F /  -10.7 °C 30.52in /  1033.4hPa SE 3.0mph /  4.8km/h 5.0mph /  8km/h 88% 0.00in /  0mm 111 W/m2
15:30 15.7 °F /  -9.1 °C 13.0 °F /  -10.6 °C 30.51in /  1033.1hPa East 4.0mph /  6.4km/h 4.0mph /  6.4km/h 89% 0.00in /  0mm 90 W/m2
15:36 15.7 °F /  -9.1 °C 13.0 °F /  -10.6 °C 30.51in /  1033.1hPa ESE 2.0mph /  3.2km/h 4.0mph /  6.4km/h 89% 0.00in /  0mm 62 W/m2
15:42 15.7 °F /  -9.1 °C 13.0 °F /  -10.6 °C 30.51in /  1033.1hPa ENE 2.0mph /  3.2km/h 2.0mph /  3.2km/h 89% 0.00in /  0mm 53 W/m2
15:48 15.7 °F /  -9.1 °C 13.0 °F /  -10.6 °C 30.51in /  1033.1hPa East 3.0mph /  4.8km/h 5.0mph /  8km/h 89% 0.00in /  0mm 54 W/m2
15:54 15.7 °F /  -9.1 °C 13.0 °F /  -10.6 °C 30.50in /  1032.7hPa ESE 3.0mph /  4.8km/h 4.0mph /  6.4km/h 89% 0.00in /  0mm 44 W/m2
15:58 15.7 °F /  -9.1 °C 13.0 °F /  -10.6 °C 30.50in /  1032.7hPa East 3.0mph /  4.8km/h 4.0mph /  6.4km/h 89% 0.00in /  0mm 40 W/m2
16:04 15.8 °F /  -9 °C 13.1 °F /  -10.5 °C 30.51in /  1033.1hPa East 3.0mph /  4.8km/h 5.0mph /  8km/h 89% 0.00in /  0mm 39 W/m2
16:06 15.8 °F /  -9 °C 13.1 °F /  -10.5 °C 30.50in /  1032.7hPa SE 2.0mph /  3.2km/h 5.0mph /  8km/h 89% 0.00in /  0mm 35 W/m2
16:10 15.8 °F /  -9 °C 13.1 °F /  -10.5 °C 30.50in /  1032.7hPa ESE 2.0mph /  3.2km/h 3.0mph /  4.8km/h 89% 0.00in /  0mm 26 W/m2
16:12 15.9 °F /  -8.9 °C 13.2 °F /  -10.4 °C 30.50in /  1032.7hPa ESE 2.0mph /  3.2km/h 3.0mph /  4.8km/h 89% 0.00in /  0mm 25 W/m2
16:16 15.9 °F /  -8.9 °C 13.2 °F /  -10.4 °C 30.50in /  1032.7hPa East 2.0mph /  3.2km/h 6.0mph /  9.7km/h 89% 0.00in /  0mm 19 W/m2
16:22 15.9 °F /  -8.9 °C 13.2 °F /  -10.4 °C 30.50in /  1032.7hPa East 2.0mph /  3.2km/h 2.0mph /  3.2km/h 89% 0.00in /  0mm 18 W/m2
16:26 15.9 °F /  -8.9 °C 13.2 °F /  -10.4 °C 30.50in /  1032.7hPa East 1.0mph /  1.6km/h 5.0mph /  8km/h 89% 0.00in /  0mm 18 W/m2
16:30 15.9 °F /  -8.9 °C 13.2 °F /  -10.4 °C 30.49in /  1032.4hPa SE 2.0mph /  3.2km/h 7.0mph /  11.3km/h 89% 0.00in /  0mm 16 W/m2
16:36 15.9 °F /  -8.9 °C 13.2 °F /  -10.4 °C 30.49in /  1032.4hPa East 3.0mph /  4.8km/h 7.0mph /  11.3km/h 89% 0.00in /  0mm 12 W/m2
16:42 15.9 °F /  -8.9 °C 13.2 °F /  -10.4 °C 30.49in /  1032.4hPa SE 3.0mph /  4.8km/h 7.0mph /  11.3km/h 89% 0.00in /  0mm 9 W/m2
16:46 15.9 °F /  -8.9 °C 13.2 °F /  -10.4 °C 30.49in /  1032.4hPa ESE 3.0mph /  4.8km/h 7.0mph /  11.3km/h 89% 0.00in /  0mm 7 W/m2
16:52 15.9 °F /  -8.9 °C 13.2 °F /  -10.4 °C 30.49in /  1032.4hPa NE 3.0mph /  4.8km/h 3.0mph /  4.8km/h 89% 0.00in /  0mm 0 W/m2
16:54 15.9 °F /  -8.9 °C 13.2 °F /  -10.4 °C 30.49in /  1032.4hPa ESE 2.0mph /  3.2km/h 3.0mph /  4.8km/h 89% 0.00in /  0mm 0 W/m2
17:00 15.8 °F /  -9 °C 13.1 °F /  -10.5 °C 30.49in /  1032.4hPa ENE 2.0mph /  3.2km/h 5.0mph /  8km/h 89% 0.00in /  0mm 0 W/m2
17:02 15.8 °F /  -9 °C 13.1 °F /  -10.5 °C 30.49in /  1032.4hPa East 2.0mph /  3.2km/h 5.0mph /  8km/h 89% 0.00in /  0mm 0 W/m2
17:08 15.8 °F /  -9 °C 13.1 °F /  -10.5 °C 30.49in /  1032.4hPa East 2.0mph /  3.2km/h 5.0mph /  8km/h 89% 0.00in /  0mm 0 W/m2
17:16 15.8 °F /  -9 °C 13.1 °F /  -10.5 °C 30.49in /  1032.4hPa SE 2.0mph /  3.2km/h 4.0mph /  6.4km/h 89% 0.00in /  0mm 0 W/m2
17:22 15.8 °F /  -9 °C 13.1 °F /  -10.5 °C 30.49in /  1032.4hPa East 2.0mph /  3.2km/h 3.0mph /  4.8km/h 89% 0.00in /  0mm 0 W/m2
17:28 15.8 °F /  -9 °C 13.1 °F /  -10.5 °C 30.49in /  1032.4hPa ESE 2.0mph /  3.2km/h 3.0mph /  4.8km/h 89% 0.00in /  0mm 0 W/m2
17:40 15.8 °F /  -9 °C 13.1 °F /  -10.5 °C 30.49in /  1032.4hPa NE 4.0mph /  6.4km/h 4.0mph /  6.4km/h 89% 0.00in /  0mm 0 W/m2
17:46 15.7 °F /  -9.1 °C 13.0 °F /  -10.6 °C 30.48in /  1032.1hPa East 4.0mph /  6.4km/h 5.0mph /  8km/h 89% 0.00in /  0mm 0 W/m2
17:52 15.7 °F /  -9.1 °C 13.0 °F /  -10.6 °C 30.49in /  1032.4hPa SE 3.0mph /  4.8km/h 6.0mph /  9.7km/h 89% 0.00in /  0mm 0 W/m2
17:58 15.7 °F /  -9.1 °C 13.0 °F /  -10.6 °C 30.49in /  1032.4hPa ESE 3.0mph /  4.8km/h 6.0mph /  9.7km/h 89% 0.00in /  0mm 0 W/m2
18:08 15.7 °F /  -9.1 °C 13.0 °F /  -10.6 °C 30.49in /  1032.4hPa East 3.0mph /  4.8km/h 7.0mph /  11.3km/h 89% 0.00in /  0mm 0 W/m2
18:14 15.7 °F /  -9.1 °C 13.0 °F /  -10.6 °C 30.48in /  1032.1hPa East 3.0mph /  4.8km/h 3.0mph /  4.8km/h 89% 0.00in /  0mm 0 W/m2
18:20 15.7 °F /  -9.1 °C 13.0 °F /  -10.6 °C 30.48in /  1032.1hPa SSE 3.0mph /  4.8km/h 3.0mph /  4.8km/h 89% 0.00in /  0mm 0 W/m2
18:26 15.7 °F /  -9.1 °C 13.0 °F /  -10.6 °C 30.49in /  1032.4hPa East 2.0mph /  3.2km/h 3.0mph /  4.8km/h 89% 0.00in /  0mm 0 W/m2
18:32 15.7 °F /  -9.1 °C 13.0 °F /  -10.6 °C 30.48in /  1032.1hPa East 2.0mph /  3.2km/h 3.0mph /  4.8km/h 89% 0.00in /  0mm 0 W/m2
18:38 15.7 °F /  -9.1 °C 13.0 °F /  -10.6 °C 30.48in /  1032.1hPa ESE 3.0mph /  4.8km/h 4.0mph /  6.4km/h 89% 0.00in /  0mm 0 W/m2
18:44 15.7 °F /  -9.1 °C 13.0 °F /  -10.6 °C 30.48in /  1032.1hPa ENE 3.0mph /  4.8km/h 4.0mph /  6.4km/h 89% 0.00in /  0mm 0 W/m2
18:50 15.8 °F /  -9 °C 13.1 °F /  -10.5 °C 30.48in /  1032.1hPa ENE 2.0mph /  3.2km/h 2.0mph /  3.2km/h 89% 0.00in /  0mm 0 W/m2
18:56 15.8 °F /  -9 °C 13.1 °F /  -10.5 °C 30.48in /  1032.1hPa ENE 2.0mph /  3.2km/h 7.0mph /  11.3km/h 89% 0.00in /  0mm 0 W/m2
19:02 15.9 °F /  -8.9 °C 13.2 °F /  -10.4 °C 30.48in /  1032.1hPa East 3.0mph /  4.8km/h 3.0mph /  4.8km/h 89% 0.00in /  0mm 0 W/m2
19:08 16.0 °F /  -8.9 °C 13.3 °F /  -10.4 °C 30.47in /  1031.7hPa ESE 2.0mph /  3.2km/h 3.0mph /  4.8km/h 89% 0.00in /  0mm 0 W/m2
19:14 16.1 °F /  -8.8 °C 13.4 °F /  -10.3 °C 30.47in /  1031.7hPa East 2.0mph /  3.2km/h 3.0mph /  4.8km/h 89% 0.00in /  0mm 0 W/m2
19:20 16.1 °F /  -8.8 °C 13.4 °F /  -10.3 °C 30.48in /  1032.1hPa East 1.0mph /  1.6km/h 1.0mph /  1.6km/h 89% 0.00in /  0mm 0 W/m2
19:26 16.2 °F /  -8.8 °C 13.5 °F /  -10.3 °C 30.48in /  1032.1hPa SSE 1.0mph /  1.6km/h 5.0mph /  8km/h 89% 0.00in /  0mm 0 W/m2
19:32 16.3 °F /  -8.7 °C 13.6 °F /  -10.2 °C 30.47in /  1031.7hPa East 3.0mph /  4.8km/h 3.0mph /  4.8km/h 89% 0.00in /  0mm 0 W/m2
19:38 16.3 °F /  -8.7 °C 13.6 °F /  -10.2 °C 30.46in /  1031.4hPa ESE 3.0mph /  4.8km/h 4.0mph /  6.4km/h 89% 0.00in /  0mm 0 W/m2
19:46 16.4 °F /  -8.7 °C 13.7 °F /  -10.2 °C 30.46in /  1031.4hPa East 3.0mph /  4.8km/h 3.0mph /  4.8km/h 89% 0.00in /  0mm 0 W/m2
19:52 16.5 °F /  -8.6 °C 13.8 °F /  -10.1 °C 30.46in /  1031.4hPa East 2.0mph /  3.2km/h 5.0mph /  8km/h 89% 0.00in /  0mm 0 W/m2
20:04 16.6 °F /  -8.6 °C 13.9 °F /  -10.1 °C 30.46in /  1031.4hPa ENE 3.0mph /  4.8km/h 3.0mph /  4.8km/h 89% 0.00in /  0mm 0 W/m2
20:12 16.7 °F /  -8.5 °C 14.0 °F /  -10 °C 30.45in /  1031hPa East 3.0mph /  4.8km/h 3.0mph /  4.8km/h 89% 0.00in /  0mm 0 W/m2
20:18 16.7 °F /  -8.5 °C 14.0 °F /  -10 °C 30.44in /  1030.7hPa ENE 3.0mph /  4.8km/h 3.0mph /  4.8km/h 89% 0.00in /  0mm 0 W/m2
20:24 16.7 °F /  -8.5 °C 14.0 °F /  -10 °C 30.44in /  1030.7hPa NNE 3.0mph /  4.8km/h 8.0mph /  12.9km/h 89% 0.00in /  0mm 0 W/m2
20:30 16.8 °F /  -8.4 °C 14.1 °F /  -9.9 °C 30.44in /  1030.7hPa East 2.0mph /  3.2km/h 2.0mph /  3.2km/h 89% 0.00in /  0mm 0 W/m2
20:36 16.8 °F /  -8.4 °C 14.1 °F /  -9.9 °C 30.44in /  1030.7hPa ESE 2.0mph /  3.2km/h 3.0mph /  4.8km/h 89% 0.00in /  0mm 0 W/m2
20:42 16.9 °F /  -8.4 °C 14.2 °F /  -9.9 °C 30.44in /  1030.7hPa East 2.0mph /  3.2km/h 2.0mph /  3.2km/h 89% 0.00in /  0mm 0 W/m2
20:48 16.8 °F /  -8.4 °C 14.1 °F /  -9.9 °C 30.44in /  1030.7hPa ENE 2.0mph /  3.2km/h 5.0mph /  8km/h 89% 0.00in /  0mm 0 W/m2
20:54 16.8 °F /  -8.4 °C 14.1 °F /  -9.9 °C 30.43in /  1030.4hPa ENE 3.0mph /  4.8km/h 3.0mph /  4.8km/h 89% 0.00in /  0mm 0 W/m2
21:00 16.8 °F /  -8.4 °C 14.1 °F /  -9.9 °C 30.44in /  1030.7hPa East 2.0mph /  3.2km/h 2.0mph /  3.2km/h 89% 0.00in /  0mm 0 W/m2
21:06 16.8 °F /  -8.4 °C 14.1 °F /  -9.9 °C 30.44in /  1030.7hPa East 3.0mph /  4.8km/h 6.0mph /  9.7km/h 89% 0.00in /  0mm 0 W/m2
21:18 16.8 °F /  -8.4 °C 14.1 °F /  -9.9 °C 30.43in /  1030.4hPa ENE 2.0mph /  3.2km/h 5.0mph /  8km/h 89% 0.00in /  0mm 0 W/m2
21:26 16.9 °F /  -8.4 °C 14.2 °F /  -9.9 °C 30.42in /  1030hPa ESE 3.0mph /  4.8km/h 4.0mph /  6.4km/h 89% 0.00in /  0mm 0 W/m2
21:34 16.8 °F /  -8.4 °C 14.4 °F /  -9.8 °C 30.43in /  1030.4hPa ENE 3.0mph /  4.8km/h 3.0mph /  4.8km/h 90% 0.00in /  0mm 0 W/m2
21:40 16.8 °F /  -8.4 °C 14.4 °F /  -9.8 °C 30.43in /  1030.4hPa East 2.0mph /  3.2km/h 2.0mph /  3.2km/h 90% 0.00in /  0mm 0 W/m2
21:46 16.8 °F /  -8.4 °C 14.4 °F /  -9.8 °C 30.43in /  1030.4hPa ENE 2.0mph /  3.2km/h 2.0mph /  3.2km/h 90% 0.00in /  0mm 0 W/m2
21:52 16.8 °F /  -8.4 °C 14.4 °F /  -9.8 °C 30.43in /  1030.4hPa East 1.0mph /  1.6km/h 5.0mph /  8km/h 90% 0.00in /  0mm 0 W/m2
22:04 16.8 °F /  -8.4 °C 14.4 °F /  -9.8 °C 30.42in /  1030hPa ENE 2.0mph /  3.2km/h 2.0mph /  3.2km/h 90% 0.00in /  0mm 0 W/m2
22:10 16.8 °F /  -8.4 °C 14.4 °F /  -9.8 °C 30.42in /  1030hPa ESE 2.0mph /  3.2km/h 4.0mph /  6.4km/h 90% 0.00in /  0mm 0 W/m2
22:16 16.8 °F /  -8.4 °C 14.4 °F /  -9.8 °C 30.43in /  1030.4hPa East 2.0mph /  3.2km/h 4.0mph /  6.4km/h 90% 0.00in /  0mm 0 W/m2
22:22 16.8 °F /  -8.4 °C 14.4 °F /  -9.8 °C 30.43in /  1030.4hPa East 1.0mph /  1.6km/h 2.0mph /  3.2km/h 90% 0.00in /  0mm 0 W/m2
22:28 16.8 °F /  -8.4 °C 14.4 °F /  -9.8 °C 30.42in /  1030hPa ENE 1.0mph /  1.6km/h 5.0mph /  8km/h 90% 0.00in /  0mm 0 W/m2
22:40 16.7 °F /  -8.5 °C 14.3 °F /  -9.8 °C 30.42in /  1030hPa ESE 3.0mph /  4.8km/h 3.0mph /  4.8km/h 90% 0.00in /  0mm 0 W/m2
22:46 16.7 °F /  -8.5 °C 14.3 °F /  -9.8 °C 30.42in /  1030hPa East 3.0mph /  4.8km/h 4.0mph /  6.4km/h 90% 0.00in /  0mm 0 W/m2
22:52 16.6 °F /  -8.6 °C 14.2 °F /  -9.9 °C 30.42in /  1030hPa ENE 2.0mph /  3.2km/h 2.0mph /  3.2km/h 90% 0.00in /  0mm 0 W/m2
22:58 16.6 °F /  -8.6 °C 14.2 °F /  -9.9 °C 30.42in /  1030hPa SE 2.0mph /  3.2km/h 4.0mph /  6.4km/h 90% 0.00in /  0mm 0 W/m2
23:04 16.6 °F /  -8.6 °C 14.2 °F /  -9.9 °C 30.41in /  1029.7hPa ENE 2.0mph /  3.2km/h 2.0mph /  3.2km/h 90% 0.00in /  0mm 0 W/m2
23:12 16.6 °F /  -8.6 °C 14.2 °F /  -9.9 °C 30.41in /  1029.7hPa East 1.0mph /  1.6km/h 2.0mph /  3.2km/h 90% 0.00in /  0mm 0 W/m2
23:18 16.6 °F /  -8.6 °C 14.2 °F /  -9.9 °C 30.41in /  1029.7hPa ESE 1.0mph /  1.6km/h 3.0mph /  4.8km/h 90% 0.00in /  0mm 0 W/m2
23:24 16.6 °F /  -8.6 °C 14.2 °F /  -9.9 °C 30.41in /  1029.7hPa East 2.0mph /  3.2km/h 4.0mph /  6.4km/h 90% 0.00in /  0mm 0 W/m2
23:30 16.6 °F /  -8.6 °C 14.2 °F /  -9.9 °C 30.41in /  1029.7hPa East 2.0mph /  3.2km/h 2.0mph /  3.2km/h 90% 0.00in /  0mm 0 W/m2
23:36 16.6 °F /  -8.6 °C 14.2 °F /  -9.9 °C 30.41in /  1029.7hPa SE 2.0mph /  3.2km/h 6.0mph /  9.7km/h 90% 0.00in /  0mm 0 W/m2
23:42 16.7 °F /  -8.5 °C 14.3 °F /  -9.8 °C 30.40in /  1029.3hPa East 1.0mph /  1.6km/h 3.0mph /  4.8km/h 90% 0.00in /  0mm 0 W/m2
23:48 16.7 °F /  -8.5 °C 14.3 °F /  -9.8 °C 30.40in /  1029.3hPa East 2.0mph /  3.2km/h 5.0mph /  8km/h 90% 0.00in /  0mm 0 W/m2
23:56 16.6 °F /  -8.6 °C 14.2 °F /  -9.9 °C 30.40in /  1029.3hPa ESE 3.0mph /  4.8km/h 3.0mph /  4.8km/h 90% 0.00in /  0mm 0 W/m2
Country Meadow, Clay, NY, USA
Compliments of Weather Underground - 2 mb